Time;durP1;ratioP1;P1;durP2;ratioP2;P2;SDS_P1;SDS_P2;PMS_P1;PMS_P2;Temp;Humidity;BMP_temperature;BMP_pressure;BME280_temperature;BME280_humidity;BME280_pressure;Samples;Min_cycle;Max_cycle;Signal;HPM_P1;HPM_P2
2023/12/06 00:00:05;;;;;;;25.80;17.98;;;;;;;;;;5080787;28;20898;-73
2023/12/06 00:02:34;;;;;;;29.13;17.92;;;;;;;;;;5087747;28;20912;-72
2023/12/06 00:05:01;;;;;;;29.25;18.83;;;;;;;;;;5080188;28;20425;-73
2023/12/06 00:07:28;;;;;;;28.40;18.45;;;;;;;;;;5081165;28;20406;-73
2023/12/06 00:09:58;;;;;;;27.13;18.38;;;;;;;;;;5082434;28;20469;-73
2023/12/06 00:12:25;;;;;;;28.35;19.10;;;;;;;;;;5080934;28;20427;-75
2023/12/06 00:14:52;;;;;;;27.05;17.80;;;;;;;;;;5085974;28;20412;-73
2023/12/06 00:17:19;;;;;;;27.65;17.55;;;;;;;;;;5080865;28;20487;-71
2023/12/06 00:19:46;;;;;;;26.42;18.08;;;;;;;;;;5082889;28;20568;-74
2023/12/06 00:22:13;;;;;;;26.40;17.67;;;;;;;;;;5077138;28;20430;-74
2023/12/06 00:24:40;;;;;;;26.40;17.65;;;;;;;;;;5077674;28;20409;-74
2023/12/06 00:27:09;;;;;;;24.45;17.15;;;;;;;;;;5078743;28;20413;-73
2023/12/06 00:29:36;;;;;;;22.23;16.50;;;;;;;;;;5082264;28;20429;-74
2023/12/06 00:32:03;;;;;;;23.20;16.90;;;;;;;;;;5086054;28;20429;-73
2023/12/06 00:34:30;;;;;;;25.50;16.57;;;;;;;;;;5076144;28;20427;-73
2023/12/06 00:36:57;;;;;;;24.10;17.15;;;;;;;;;;5075301;28;20778;-74
2023/12/06 00:39:24;;;;;;;25.27;16.88;;;;;;;;;;5081493;28;20897;-72
2023/12/06 00:41:51;;;;;;;25.42;17.30;;;;;;;;;;5087064;28;20418;-74
2023/12/06 00:44:20;;;;;;;24.20;17.23;;;;;;;;;;5080110;28;20417;-74
2023/12/06 00:46:47;;;;;;;26.55;17.08;;;;;;;;;;5077212;28;20417;-74
2023/12/06 00:49:17;;;;;;;21.08;16.00;;;;;;;;;;5083468;28;20417;-74
2023/12/06 00:51:44;;;;;;;24.48;16.80;;;;;;;;;;5071155;28;20419;-74
2023/12/06 00:54:11;;;;;;;25.67;17.40;;;;;;;;;;5073513;28;20430;-73
2023/12/06 00:56:38;;;;;;;21.00;15.82;;;;;;;;;;5077996;28;20407;-74
2023/12/06 00:59:05;;;;;;;25.55;16.83;;;;;;;;;;5080628;28;20417;-74
2023/12/06 01:01:33;;;;;;;23.85;16.67;;;;;;;;;;5072306;28;20446;-73
2023/12/06 01:04:00;;;;;;;23.55;16.73;;;;;;;;;;5077100;28;20412;-73
2023/12/06 01:06:27;;;;;;;22.20;16.80;;;;;;;;;;5075183;28;20443;-73
2023/12/06 01:08:55;;;;;;;23.30;16.90;;;;;;;;;;5079874;28;20402;-74
2023/12/06 01:11:22;;;;;;;25.25;17.73;;;;;;;;;;5087059;28;20402;-74
2023/12/06 01:13:49;;;;;;;23.95;16.50;;;;;;;;;;5084265;28;20441;-73
2023/12/06 01:16:16;;;;;;;24.08;17.23;;;;;;;;;;5087943;28;20417;-74
2023/12/06 01:18:44;;;;;;;23.27;16.27;;;;;;;;;;5087931;28;20406;-74
2023/12/06 01:21:11;;;;;;;24.23;17.15;;;;;;;;;;5084467;28;20892;-74
2023/12/06 01:23:38;;;;;;;24.58;17.05;;;;;;;;;;5085759;28;20670;-73
2023/12/06 01:26:05;;;;;;;25.15;18.15;;;;;;;;;;5088157;28;20406;-73
2023/12/06 01:28:32;;;;;;;27.98;18.00;;;;;;;;;;5086206;28;20444;-73
2023/12/06 01:31:00;;;;;;;28.92;18.52;;;;;;;;;;5079975;28;20426;-73
2023/12/06 01:33:27;;;;;;;32.00;19.40;;;;;;;;;;5076067;28;20427;-74
2023/12/06 01:35:55;;;;;;;30.33;20.40;;;;;;;;;;5072436;28;20437;-74
2023/12/06 01:38:22;;;;;;;30.65;19.80;;;;;;;;;;5080092;28;20785;-74
2023/12/06 01:40:49;;;;;;;32.13;21.73;;;;;;;;;;5083627;28;20476;-74
2023/12/06 01:43:16;;;;;;;31.30;21.13;;;;;;;;;;5088085;28;20413;-73
2023/12/06 01:45:43;;;;;;;29.60;20.83;;;;;;;;;;5082476;28;20431;-74
2023/12/06 01:48:11;;;;;;;32.65;21.65;;;;;;;;;;5087608;28;20428;-73
2023/12/06 01:50:39;;;;;;;36.55;23.20;;;;;;;;;;5084903;28;20448;-74
2023/12/06 01:53:08;;;;;;;35.13;22.83;;;;;;;;;;5081574;28;20815;-74
2023/12/06 01:55:35;;;;;;;36.08;23.27;;;;;;;;;;5082446;28;20416;-73
2023/12/06 01:58:03;;;;;;;36.90;24.05;;;;;;;;;;5079174;28;20412;-73
2023/12/06 02:00:31;;;;;;;36.55;23.33;;;;;;;;;;5084706;28;20421;-72
2023/12/06 02:02:58;;;;;;;37.75;25.13;;;;;;;;;;5083826;28;20819;-74
2023/12/06 02:05:26;;;;;;;34.20;23.88;;;;;;;;;;5074603;28;20427;-73
2023/12/06 02:07:53;;;;;;;41.35;26.05;;;;;;;;;;5079258;28;20415;-73
2023/12/06 02:10:22;;;;;;;39.60;24.75;;;;;;;;;;5079656;28;20429;-74
2023/12/06 02:12:49;;;;;;;43.53;27.13;;;;;;;;;;5074691;28;20430;-73
2023/12/06 02:15:16;;;;;;;46.93;26.93;;;;;;;;;;5084622;28;20537;-74
2023/12/06 02:17:44;;;;;;;47.45;28.38;;;;;;;;;;5074963;28;20510;-74
2023/12/06 02:20:12;;;;;;;53.23;30.80;;;;;;;;;;5078022;28;20427;-73
2023/12/06 02:22:39;;;;;;;45.17;29.70;;;;;;;;;;5081708;28;20437;-73
2023/12/06 02:25:11;;;;;;;50.67;30.10;;;;;;;;;;5080293;28;20416;-73
2023/12/06 02:27:40;;;;;;;50.30;30.75;;;;;;;;;;5080490;28;20477;-75
2023/12/06 02:30:08;;;;;;;48.40;29.90;;;;;;;;;;5084788;28;20414;-73
2023/12/06 02:32:35;;;;;;;49.65;31.90;;;;;;;;;;5082865;28;20917;-73
2023/12/06 02:35:04;;;;;;;49.08;30.55;;;;;;;;;;5074634;28;20802;-75
2023/12/06 02:37:31;;;;;;;49.78;30.45;;;;;;;;;;5079311;28;20412;-74
2023/12/06 02:39:58;;;;;;;52.45;30.83;;;;;;;;;;5087423;28;21029;-74
2023/12/06 02:42:27;;;;;;;53.75;32.08;;;;;;;;;;5085713;28;20408;-73
2023/12/06 02:44:54;;;;;;;53.92;32.80;;;;;;;;;;5071694;28;20432;-73
2023/12/06 02:47:21;;;;;;;58.33;34.38;;;;;;;;;;5077201;28;20410;-73
2023/12/06 02:49:48;;;;;;;60.33;36.03;;;;;;;;;;5076182;28;20431;-74
2023/12/06 02:52:15;;;;;;;56.33;34.10;;;;;;;;;;5084286;28;20405;-74
2023/12/06 02:54:42;;;;;;;64.30;36.72;;;;;;;;;;5081216;28;20433;-74
2023/12/06 02:57:09;;;;;;;59.45;35.83;;;;;;;;;;5082272;28;20406;-73
2023/12/06 02:59:37;;;;;;;59.78;36.58;;;;;;;;;;5082261;28;20422;-74
2023/12/06 03:02:05;;;;;;;58.08;35.40;;;;;;;;;;5087094;28;20416;-74
2023/12/06 03:04:32;;;;;;;62.05;36.83;;;;;;;;;;5079878;28;20440;-74
2023/12/06 03:06:59;;;;;;;60.15;36.58;;;;;;;;;;5076815;28;20411;-74
2023/12/06 03:09:26;;;;;;;60.25;37.60;;;;;;;;;;5078721;28;20414;-74
2023/12/06 03:11:52;;;;;;;59.47;36.72;;;;;;;;;;5074645;28;20810;-74
2023/12/06 03:14:19;;;;;;;60.15;35.75;;;;;;;;;;5089323;28;20426;-74
2023/12/06 03:16:48;;;;;;;57.17;36.38;;;;;;;;;;5081104;28;20413;-74
2023/12/06 03:19:15;;;;;;;54.65;34.75;;;;;;;;;;5075575;28;20432;-74
2023/12/06 03:21:42;;;;;;;55.23;33.83;;;;;;;;;;5076943;28;20406;-73
2023/12/06 03:24:09;;;;;;;58.50;36.70;;;;;;;;;;5089420;28;20410;-74
2023/12/06 03:26:36;;;;;;;57.15;35.25;;;;;;;;;;5080495;28;20410;-73
2023/12/06 03:29:03;;;;;;;51.70;34.30;;;;;;;;;;5085221;28;20410;-74
2023/12/06 03:31:30;;;;;;;53.53;34.40;;;;;;;;;;5089732;28;20406;-74
2023/12/06 03:33:59;;;;;;;49.88;33.55;;;;;;;;;;5080677;28;20425;-75
2023/12/06 03:36:26;;;;;;;49.40;33.63;;;;;;;;;;5079019;28;20410;-74
2023/12/06 03:38:53;;;;;;;45.42;33.00;;;;;;;;;;5088535;28;20421;-75
2023/12/06 03:41:20;;;;;;;45.45;33.03;;;;;;;;;;5090186;28;20420;-74
2023/12/06 03:43:47;;;;;;;44.90;32.42;;;;;;;;;;5090440;28;20402;-74
2023/12/06 03:46:14;;;;;;;43.92;31.27;;;;;;;;;;5084626;28;20448;-74
2023/12/06 03:48:41;;;;;;;43.28;31.95;;;;;;;;;;5080243;28;20428;-74
2023/12/06 03:51:10;;;;;;;43.65;32.17;;;;;;;;;;5085134;28;20947;-74
2023/12/06 03:53:37;;;;;;;41.45;30.50;;;;;;;;;;5086369;28;20425;-74
2023/12/06 03:56:04;;;;;;;43.47;32.90;;;;;;;;;;5084598;28;20862;-75
2023/12/06 03:58:31;;;;;;;42.53;32.77;;;;;;;;;;5086590;28;20417;-74
2023/12/06 04:00:58;;;;;;;42.53;32.65;;;;;;;;;;5082255;28;20402;-73
2023/12/06 04:03:26;;;;;;;42.03;30.60;;;;;;;;;;5087709;28;20429;-74
2023/12/06 04:05:53;;;;;;;40.97;30.65;;;;;;;;;;5085910;28;20428;-74
2023/12/06 04:08:21;;;;;;;39.75;30.58;;;;;;;;;;5083111;28;20414;-75
2023/12/06 04:10:48;;;;;;;38.50;30.50;;;;;;;;;;5089017;28;20434;-74
2023/12/06 04:13:15;;;;;;;40.10;30.20;;;;;;;;;;5082439;28;20440;-74
2023/12/06 04:15:42;;;;;;;38.67;30.65;;;;;;;;;;5079103;28;20405;-75
2023/12/06 04:18:09;;;;;;;38.25;28.63;;;;;;;;;;5077619;28;20428;-74
2023/12/06 04:20:36;;;;;;;37.70;29.90;;;;;;;;;;5079122;28;20556;-74
2023/12/06 04:23:03;;;;;;;38.55;30.05;;;;;;;;;;5087016;28;20406;-75
2023/12/06 04:25:32;;;;;;;41.13;29.67;;;;;;;;;;5081168;28;20421;-75
2023/12/06 04:27:59;;;;;;;38.80;29.45;;;;;;;;;;5076680;28;21173;-73
2023/12/06 04:30:26;;;;;;;39.40;29.30;;;;;;;;;;5088422;28;20406;-75
2023/12/06 04:32:53;;;;;;;40.10;30.60;;;;;;;;;;5084341;28;20790;-74
2023/12/06 04:35:20;;;;;;;39.25;29.85;;;;;;;;;;5073935;28;20423;-75
2023/12/06 04:37:48;;;;;;;39.50;30.63;;;;;;;;;;5079365;28;20892;-75
2023/12/06 04:40:15;;;;;;;39.53;30.83;;;;;;;;;;5080495;28;20412;-74
2023/12/06 04:42:43;;;;;;;41.28;30.63;;;;;;;;;;5082305;28;20419;-74
2023/12/06 04:45:11;;;;;;;42.72;31.17;;;;;;;;;;5077007;28;20424;-75
2023/12/06 04:47:38;;;;;;;44.38;30.98;;;;;;;;;;5073814;28;20500;-74
2023/12/06 04:50:06;;;;;;;42.97;30.90;;;;;;;;;;5075963;28;20713;-74
2023/12/06 04:52:33;;;;;;;43.70;31.73;;;;;;;;;;5084159;28;20410;-74
2023/12/06 04:55:04;;;;;;;42.88;32.03;;;;;;;;;;5077635;28;20433;-74
2023/12/06 04:57:31;;;;;;;44.25;31.70;;;;;;;;;;5085707;28;20414;-74
2023/12/06 05:00:00;;;;;;;48.08;30.88;;;;;;;;;;5089890;28;20618;-75
2023/12/06 05:02:27;;;;;;;44.55;32.60;;;;;;;;;;5089355;28;20421;-74
2023/12/06 05:04:54;;;;;;;49.90;32.00;;;;;;;;;;5083466;28;20430;-74
2023/12/06 05:07:21;;;;;;;46.35;32.20;;;;;;;;;;5082102;28;20786;-74
2023/12/06 05:09:48;;;;;;;44.72;31.80;;;;;;;;;;5072224;28;20438;-74
2023/12/06 05:12:16;;;;;;;47.05;32.85;;;;;;;;;;5085966;28;20433;-74
2023/12/06 05:14:43;;;;;;;43.10;31.52;;;;;;;;;;5079036;28;20423;-73
2023/12/06 05:17:11;;;;;;;44.35;30.80;;;;;;;;;;5088221;28;20414;-74
2023/12/06 05:19:38;;;;;;;42.83;31.37;;;;;;;;;;5082137;28;20543;-74
2023/12/06 05:22:06;;;;;;;45.10;31.50;;;;;;;;;;5075867;28;20410;-75
2023/12/06 05:24:33;;;;;;;44.70;31.40;;;;;;;;;;5086188;28;20884;-76
2023/12/06 05:27:00;;;;;;;44.27;30.83;;;;;;;;;;5080934;28;21023;-73
2023/12/06 05:29:27;;;;;;;42.72;29.98;;;;;;;;;;5087647;28;20433;-74
2023/12/06 05:31:54;;;;;;;43.05;31.23;;;;;;;;;;5091989;28;20414;-73
2023/12/06 05:34:22;;;;;;;42.15;30.98;;;;;;;;;;5086053;28;20429;-73
2023/12/06 05:36:49;;;;;;;45.05;32.10;;;;;;;;;;5085139;28;20426;-72
2023/12/06 05:39:17;;;;;;;47.05;34.05;;;;;;;;;;5076975;28;20432;-74
2023/12/06 05:41:44;;;;;;;43.95;31.00;;;;;;;;;;5085128;28;20414;-74
2023/12/06 05:44:11;;;;;;;46.17;31.77;;;;;;;;;;5083114;28;20816;-75
2023/12/06 05:46:38;;;;;;;42.57;30.77;;;;;;;;;;5082188;28;20504;-75
2023/12/06 05:49:05;;;;;;;44.35;31.77;;;;;;;;;;5080251;28;20746;-76
2023/12/06 05:51:34;;;;;;;41.90;30.60;;;;;;;;;;5079503;28;20428;-71
2023/12/06 05:54:03;;;;;;;40.33;30.00;;;;;;;;;;5080215;28;20427;-73
2023/12/06 05:56:30;;;;;;;43.00;31.42;;;;;;;;;;5079212;28;20419;-72
2023/12/06 05:58:57;;;;;;;42.50;30.92;;;;;;;;;;5086738;28;20934;-72
2023/12/06 06:01:24;;;;;;;40.67;30.98;;;;;;;;;;5084021;28;20444;-71
2023/12/06 06:03:52;;;;;;;40.33;29.77;;;;;;;;;;5079407;28;20410;-73
2023/12/06 06:06:19;;;;;;;42.92;30.38;;;;;;;;;;5079599;28;20431;-72
2023/12/06 06:08:47;;;;;;;38.13;30.40;;;;;;;;;;5101756;22;20434;-72
2023/12/06 06:11:14;;;;;;;37.47;29.05;;;;;;;;;;5056193;28;20428;-72
2023/12/06 06:13:41;;;;;;;40.70;30.52;;;;;;;;;;5055633;28;20923;-72
2023/12/06 06:16:09;;;;;;;36.90;29.15;;;;;;;;;;5062988;28;20487;-71
2023/12/06 06:18:36;;;;;;;40.97;31.10;;;;;;;;;;5056204;28;20754;-69
2023/12/06 06:21:05;;;;;;;37.03;29.00;;;;;;;;;;5045571;28;20445;-71
2023/12/06 06:23:32;;;;;;;36.90;29.50;;;;;;;;;;5046539;28;20453;-70
2023/12/06 06:26:01;;;;;;;37.47;29.23;;;;;;;;;;5039526;28;20417;-71
2023/12/06 06:28:29;;;;;;;39.50;29.73;;;;;;;;;;5040263;28;20429;-71
2023/12/06 06:30:56;;;;;;;37.50;30.25;;;;;;;;;;5043124;28;20975;-71
2023/12/06 06:33:23;;;;;;;38.55;29.25;;;;;;;;;;5035387;28;20415;-70
2023/12/06 06:35:50;;;;;;;36.57;29.83;;;;;;;;;;5040212;28;20437;-71
2023/12/06 06:38:17;;;;;;;38.22;30.50;;;;;;;;;;5046962;28;20417;-70
2023/12/06 06:40:45;;;;;;;38.28;30.88;;;;;;;;;;5043411;28;20414;-71
2023/12/06 06:43:14;;;;;;;39.22;31.35;;;;;;;;;;5047155;28;20433;-72
2023/12/06 06:45:42;;;;;;;35.70;30.20;;;;;;;;;;5042240;28;20492;-70
2023/12/06 06:48:10;;;;;;;35.13;29.50;;;;;;;;;;5041956;28;20437;-71
2023/12/06 06:50:37;;;;;;;35.88;30.67;;;;;;;;;;5043609;28;21139;-71
2023/12/06 06:53:04;;;;;;;36.22;29.67;;;;;;;;;;5042656;28;20415;-72
2023/12/06 06:55:31;;;;;;;37.78;31.20;;;;;;;;;;5042255;28;20432;-72
2023/12/06 06:58:00;;;;;;;34.53;29.20;;;;;;;;;;5036928;28;20442;-71
2023/12/06 07:00:28;;;;;;;37.40;30.30;;;;;;;;;;5044063;28;20452;-71
2023/12/06 07:02:55;;;;;;;35.45;30.92;;;;;;;;;;5045658;28;20421;-71
2023/12/06 07:05:22;;;;;;;39.35;31.23;;;;;;;;;;5041711;28;20524;-70
2023/12/06 07:07:50;;;;;;;37.13;31.20;;;;;;;;;;5047097;28;20977;-72
2023/12/06 07:10:17;;;;;;;37.70;30.30;;;;;;;;;;5038434;28;20778;-71
2023/12/06 07:12:44;;;;;;;34.78;29.88;;;;;;;;;;5037175;28;20774;-71
2023/12/06 07:15:14;;;;;;;34.55;30.02;;;;;;;;;;5039114;28;20897;-71
2023/12/06 07:17:43;;;;;;;34.55;30.25;;;;;;;;;;5029429;28;20411;-71
2023/12/06 07:20:11;;;;;;;38.58;31.55;;;;;;;;;;5035569;28;20460;-71
2023/12/06 07:22:38;;;;;;;37.30;30.45;;;;;;;;;;5038665;28;20422;-71
2023/12/06 07:25:06;;;;;;;36.90;31.65;;;;;;;;;;5034105;28;20409;-70
2023/12/06 07:27:33;;;;;;;36.03;29.73;;;;;;;;;;5041606;28;20436;-70
2023/12/06 07:30:00;;;;;;;35.47;30.10;;;;;;;;;;5042345;28;20922;-71
2023/12/06 07:32:27;;;;;;;33.42;29.83;;;;;;;;;;5042648;28;20413;-71
2023/12/06 07:34:55;;;;;;;34.28;29.30;;;;;;;;;;5036687;28;20427;-71
2023/12/06 07:37:22;;;;;;;34.05;30.33;;;;;;;;;;5039341;28;20433;-71
2023/12/06 07:39:49;;;;;;;33.47;29.88;;;;;;;;;;5047117;28;21035;-71
2023/12/06 07:42:16;;;;;;;33.77;29.90;;;;;;;;;;5029101;28;20849;-71
2023/12/06 07:44:44;;;;;;;33.65;29.02;;;;;;;;;;5038069;28;20421;-70
2023/12/06 07:47:11;;;;;;;32.72;29.23;;;;;;;;;;5047310;28;20801;-71
2023/12/06 07:49:38;;;;;;;33.20;29.60;;;;;;;;;;5035210;28;20936;-71
2023/12/06 07:52:07;;;;;;;34.45;28.10;;;;;;;;;;5039224;28;20436;-71
2023/12/06 07:54:34;;;;;;;30.77;27.48;;;;;;;;;;5036871;28;20506;-71
2023/12/06 07:57:01;;;;;;;34.38;29.67;;;;;;;;;;5046388;28;20471;-71
2023/12/06 07:59:28;;;;;;;33.78;29.83;;;;;;;;;;5033782;28;20429;-70
2023/12/06 08:01:56;;;;;;;32.30;28.17;;;;;;;;;;5044186;28;20424;-71
2023/12/06 08:04:23;;;;;;;32.55;28.92;;;;;;;;;;5038951;28;20884;-70
2023/12/06 08:06:51;;;;;;;31.77;28.23;;;;;;;;;;5037152;28;20423;-71
2023/12/06 08:09:20;;;;;;;30.92;27.35;;;;;;;;;;5042110;28;20841;-71
2023/12/06 08:11:47;;;;;;;31.02;27.65;;;;;;;;;;5045934;28;20414;-71
2023/12/06 08:14:15;;;;;;;29.13;25.92;;;;;;;;;;5039878;28;20442;-71
2023/12/06 08:16:42;;;;;;;29.35;26.17;;;;;;;;;;5034128;28;20441;-71
2023/12/06 08:19:09;;;;;;;31.38;26.15;;;;;;;;;;5036079;28;20750;-71
2023/12/06 08:21:36;;;;;;;31.40;26.55;;;;;;;;;;5033806;28;20437;-71
2023/12/06 08:24:05;;;;;;;29.27;26.17;;;;;;;;;;5043273;28;20532;-71
2023/12/06 08:26:34;;;;;;;31.67;26.70;;;;;;;;;;5037414;28;20417;-70
2023/12/06 08:29:02;;;;;;;29.40;26.20;;;;;;;;;;5045379;28;20453;-71
2023/12/06 08:31:29;;;;;;;27.80;24.80;;;;;;;;;;5034117;28;20433;-71
2023/12/06 08:33:57;;;;;;;27.90;24.90;;;;;;;;;;5039401;28;20436;-70
2023/12/06 08:36:24;;;;;;;28.75;25.73;;;;;;;;;;5030099;28;20799;-72
2023/12/06 08:38:51;;;;;;;29.63;26.45;;;;;;;;;;5035830;28;20548;-71
2023/12/06 08:41:19;;;;;;;29.73;26.52;;;;;;;;;;5034514;28;20426;-71
2023/12/06 08:43:48;;;;;;;28.23;25.33;;;;;;;;;;5037815;28;20440;-70
2023/12/06 08:46:15;;;;;;;27.20;24.30;;;;;;;;;;5038461;28;20414;-71
2023/12/06 08:48:42;;;;;;;28.90;25.80;;;;;;;;;;5050662;28;20492;-71
2023/12/06 08:51:09;;;;;;;27.58;24.67;;;;;;;;;;5034242;28;20449;-71
2023/12/06 08:53:36;;;;;;;28.85;25.80;;;;;;;;;;5038039;28;20456;-70
2023/12/06 08:56:03;;;;;;;28.73;25.20;;;;;;;;;;5034954;28;20503;-71
2023/12/06 08:58:30;;;;;;;29.77;26.58;;;;;;;;;;5036359;28;20432;-70
2023/12/06 09:00:59;;;;;;;28.55;25.55;;;;;;;;;;5036613;28;20654;-71
2023/12/06 09:03:26;;;;;;;28.92;25.52;;;;;;;;;;5025750;28;20423;-71
2023/12/06 09:05:53;;;;;;;27.77;24.88;;;;;;;;;;5023718;28;20428;-71
2023/12/06 09:08:21;;;;;;;28.23;25.23;;;;;;;;;;5037118;28;20441;-71
2023/12/06 09:10:49;;;;;;;28.58;25.08;;;;;;;;;;5026058;28;20500;-71
2023/12/06 09:13:16;;;;;;;28.20;25.33;;;;;;;;;;5037681;28;20449;-70
2023/12/06 09:15:43;;;;;;;26.65;23.85;;;;;;;;;;5024801;28;20426;-71
2023/12/06 09:18:12;;;;;;;25.63;23.03;;;;;;;;;;5031229;28;20766;-71
2023/12/06 09:20:39;;;;;;;27.13;24.23;;;;;;;;;;5044998;28;20764;-71
2023/12/06 09:23:06;;;;;;;25.80;23.20;;;;;;;;;;5043649;28;20508;-71
2023/12/06 09:25:33;;;;;;;25.40;22.95;;;;;;;;;;5036907;28;20859;-71
2023/12/06 09:28:02;;;;;;;26.33;22.80;;;;;;;;;;5040259;28;20741;-71
2023/12/06 09:30:30;;;;;;;23.88;21.58;;;;;;;;;;5034247;28;20458;-71
2023/12/06 09:32:57;;;;;;;25.05;22.45;;;;;;;;;;5030319;28;20425;-71
2023/12/06 09:35:26;;;;;;;24.17;21.67;;;;;;;;;;5034568;28;20461;-71
2023/12/06 09:37:53;;;;;;;24.45;22.05;;;;;;;;;;5033925;28;20460;-71
2023/12/06 09:40:20;;;;;;;23.80;21.27;;;;;;;;;;5044904;28;20432;-71
2023/12/06 09:42:51;;;;;;;23.23;20.83;;;;;;;;;;5041251;28;20437;-71
2023/12/06 09:45:20;;;;;;;23.48;21.17;;;;;;;;;;5032347;28;20431;-71
2023/12/06 09:47:48;;;;;;;22.60;20.40;;;;;;;;;;5033280;28;20817;-71
2023/12/06 09:50:16;;;;;;;23.23;20.83;;;;;;;;;;5027725;28;20429;-71
2023/12/06 09:52:44;;;;;;;22.88;20.50;;;;;;;;;;5029334;28;20539;-71
2023/12/06 09:55:12;;;;;;;22.90;20.50;;;;;;;;;;5028625;28;20448;-71
2023/12/06 09:57:39;;;;;;;23.20;20.80;;;;;;;;;;5023804;28;20426;-71
2023/12/06 10:00:06;;;;;;;25.35;22.85;;;;;;;;;;5024070;28;20788;-71
2023/12/06 10:02:48;;;;;;;23.48;21.08;;;;;;;;;;5036436;28;20422;-71
2023/12/06 10:05:15;;;;;;;23.00;20.70;;;;;;;;;;5036985;28;20543;-71
2023/12/06 10:07:42;;;;;;;24.13;21.52;;;;;;;;;;5034261;28;20447;-71
2023/12/06 10:10:15;;;;;;;23.38;21.08;;;;;;;;;;5024061;28;20423;-71
2023/12/06 10:12:49;;;;;;;23.65;21.25;;;;;;;;;;5035036;28;20939;-71
2023/12/06 10:15:16;;;;;;;24.20;21.60;;;;;;;;;;5027183;28;20609;-71
2023/12/06 10:17:44;;;;;;;23.30;20.90;;;;;;;;;;5039049;28;20415;-71
2023/12/06 10:20:11;;;;;;;24.27;21.75;;;;;;;;;;5042314;28;20420;-71
2023/12/06 10:22:38;;;;;;;23.88;21.40;;;;;;;;;;5038183;28;20425;-70
2023/12/06 10:25:06;;;;;;;23.30;20.90;;;;;;;;;;5045082;28;20438;-71
2023/12/06 10:27:35;;;;;;;23.52;21.00;;;;;;;;;;5044098;28;20421;-71
2023/12/06 10:30:03;;;;;;;23.20;20.90;;;;;;;;;;5034062;28;20486;-71
2023/12/06 10:32:31;;;;;;;22.58;20.38;;;;;;;;;;5047794;28;20425;-71
2023/12/06 10:34:59;;;;;;;23.23;20.90;;;;;;;;;;5027996;28;20453;-71
2023/12/06 10:37:26;;;;;;;22.48;20.23;;;;;;;;;;5036443;28;20907;-71
2023/12/06 10:39:56;;;;;;;23.25;20.75;;;;;;;;;;5037336;28;20872;-70
2023/12/06 10:42:26;;;;;;;22.02;19.83;;;;;;;;;;5040751;28;20903;-71
2023/12/06 10:44:56;;;;;;;21.40;19.20;;;;;;;;;;5026005;28;20418;-71
2023/12/06 10:47:24;;;;;;;22.20;20.00;;;;;;;;;;5039576;28;20438;-72
2023/12/06 10:49:52;;;;;;;21.65;19.55;;;;;;;;;;5033747;28;20427;-73
2023/12/06 10:52:20;;;;;;;22.83;20.52;;;;;;;;;;5033107;28;20435;-71
2023/12/06 10:54:47;;;;;;;22.33;20.02;;;;;;;;;;5035350;28;20414;-71
2023/12/06 10:57:15;;;;;;;21.70;19.60;;;;;;;;;;5041278;28;20442;-71
2023/12/06 10:59:44;;;;;;;20.20;18.10;;;;;;;;;;5025993;28;20419;-71
2023/12/06 11:02:13;;;;;;;19.97;17.90;;;;;;;;;;5032072;28;20860;-71
2023/12/06 11:04:43;;;;;;;19.95;17.85;;;;;;;;;;5037703;28;20418;-71
2023/12/06 11:07:14;;;;;;;19.80;17.48;;;;;;;;;;5037412;28;20436;-71
2023/12/06 11:09:47;;;;;;;20.17;18.08;;;;;;;;;;5046753;28;20413;-71
2023/12/06 11:12:19;;;;;;;21.20;19.10;;;;;;;;;;5032598;28;20785;-71
2023/12/06 11:14:56;;;;;;;19.75;17.60;;;;;;;;;;5038846;28;20422;-71
2023/12/06 11:17:31;;;;;;;20.55;18.45;;;;;;;;;;5039944;28;21079;-71
2023/12/06 11:19:58;;;;;;;19.98;18.08;;;;;;;;;;5034760;28;20431;-71
2023/12/06 11:22:26;;;;;;;20.67;18.52;;;;;;;;;;5031878;28;20712;-71
2023/12/06 11:24:53;;;;;;;21.77;19.67;;;;;;;;;;5035658;28;20433;-72
2023/12/06 11:27:21;;;;;;;20.77;18.67;;;;;;;;;;5031565;28;20426;-72
2023/12/06 11:29:49;;;;;;;24.50;20.33;;;;;;;;;;5031453;28;20844;-72
2023/12/06 11:32:16;;;;;;;23.02;20.52;;;;;;;;;;5043729;28;20932;-71
2023/12/06 11:34:44;;;;;;;24.23;21.00;;;;;;;;;;5038744;28;20522;-71
2023/12/06 11:37:18;;;;;;;24.27;21.77;;;;;;;;;;5037799;28;20510;-72
2023/12/06 11:39:48;;;;;;;22.52;20.33;;;;;;;;;;5034698;28;20463;-71
2023/12/06 11:42:19;;;;;;;22.88;20.58;;;;;;;;;;5032796;28;20704;-72
2023/12/06 11:44:52;;;;;;;23.25;20.90;;;;;;;;;;5037760;28;20474;-72
2023/12/06 11:47:25;;;;;;;24.13;21.60;;;;;;;;;;5028298;28;20435;-71
2023/12/06 11:49:53;;;;;;;23.40;20.90;;;;;;;;;;5043678;28;20482;-72
2023/12/06 11:52:21;;;;;;;23.35;20.95;;;;;;;;;;5038417;28;20564;-72
2023/12/06 11:54:48;;;;;;;22.02;19.92;;;;;;;;;;5041360;28;20471;-72
2023/12/06 11:57:15;;;;;;;21.88;19.67;;;;;;;;;;5045668;28;20448;-73
2023/12/06 11:59:44;;;;;;;21.70;19.50;;;;;;;;;;5035127;28;20406;-71
2023/12/06 12:02:11;;;;;;;22.98;20.48;;;;;;;;;;5042929;28;20475;-71
2023/12/06 12:04:38;;;;;;;23.38;21.08;;;;;;;;;;5032838;28;20439;-71
2023/12/06 12:07:09;;;;;;;21.75;19.45;;;;;;;;;;5041803;28;20430;-71
2023/12/06 12:09:36;;;;;;;21.20;19.00;;;;;;;;;;5037306;28;20913;-71
2023/12/06 12:12:03;;;;;;;20.75;18.65;;;;;;;;;;5026443;28;20418;-71
2023/12/06 12:14:32;;;;;;;19.85;17.85;;;;;;;;;;5043087;28;20414;-73
2023/12/06 12:16:59;;;;;;;19.65;17.55;;;;;;;;;;5026987;28;20460;-73
2023/12/06 12:19:27;;;;;;;18.83;16.90;;;;;;;;;;5030536;28;20434;-73
2023/12/06 12:22:02;;;;;;;19.98;17.88;;;;;;;;;;5033259;28;20415;-72
2023/12/06 12:24:30;;;;;;;20.45;18.35;;;;;;;;;;5031404;28;20417;-73
2023/12/06 12:26:57;;;;;;;21.23;19.02;;;;;;;;;;5040403;28;20488;-73
2023/12/06 12:29:24;;;;;;;19.60;17.70;;;;;;;;;;5071572;22;20398;-73
2023/12/06 12:31:52;;;;;;;20.30;18.30;;;;;;;;;;5084270;28;20425;-73
2023/12/06 12:34:19;;;;;;;19.20;17.30;;;;;;;;;;5088740;28;20414;-73
2023/12/06 12:36:46;;;;;;;19.60;17.33;;;;;;;;;;5085621;28;20440;-72
2023/12/06 12:39:13;;;;;;;19.55;17.27;;;;;;;;;;5076511;28;21844;-73
2023/12/06 12:41:42;;;;;;;18.40;16.52;;;;;;;;;;5070870;28;20415;-73
2023/12/06 12:44:09;;;;;;;19.08;17.17;;;;;;;;;;5066368;28;20421;-73
2023/12/06 12:46:36;;;;;;;18.60;16.13;;;;;;;;;;5066209;28;20411;-72
2023/12/06 12:49:05;;;;;;;18.10;16.20;;;;;;;;;;5063211;28;20419;-73
2023/12/06 12:51:35;;;;;;;18.40;16.60;;;;;;;;;;5058049;28;20439;-73
2023/12/06 12:54:02;;;;;;;18.17;16.27;;;;;;;;;;5061379;28;20422;-74
2023/12/06 12:56:29;;;;;;;17.35;15.60;;;;;;;;;;5064223;28;20803;-72
2023/12/06 12:58:57;;;;;;;17.20;15.60;;;;;;;;;;5070828;28;20445;-73
2023/12/06 13:01:25;;;;;;;17.67;15.98;;;;;;;;;;5062092;28;20435;-74
2023/12/06 13:03:52;;;;;;;18.38;15.80;;;;;;;;;;5067193;28;20745;-74
2023/12/06 13:06:21;;;;;;;17.70;15.90;;;;;;;;;;5074781;28;20404;-75
2023/12/06 13:08:48;;;;;;;17.90;16.08;;;;;;;;;;5066169;28;20486;-72
2023/12/06 13:11:15;;;;;;;17.27;15.20;;;;;;;;;;5066200;28;20431;-73
2023/12/06 13:13:42;;;;;;;17.50;15.70;;;;;;;;;;5064948;28;20438;-73
2023/12/06 13:16:11;;;;;;;16.80;15.10;;;;;;;;;;5061680;28;20427;-73
2023/12/06 13:18:38;;;;;;;16.23;14.52;;;;;;;;;;5069606;28;20411;-73
2023/12/06 13:21:06;;;;;;;17.50;15.60;;;;;;;;;;5068460;28;20477;-73
2023/12/06 13:23:34;;;;;;;17.17;15.45;;;;;;;;;;5056308;28;20486;-72
2023/12/06 13:26:02;;;;;;;16.23;14.73;;;;;;;;;;5063038;28;20419;-72
2023/12/06 13:28:29;;;;;;;17.50;15.27;;;;;;;;;;5072944;28;20424;-72
2023/12/06 13:30:57;;;;;;;15.73;14.13;;;;;;;;;;5067730;28;20444;-73
2023/12/06 13:33:25;;;;;;;16.00;14.40;;;;;;;;;;5072705;28;20426;-72
2023/12/06 13:35:52;;;;;;;15.70;14.20;;;;;;;;;;5060933;28;20439;-73
2023/12/06 13:38:19;;;;;;;15.10;13.60;;;;;;;;;;5063684;28;20797;-72
2023/12/06 13:40:46;;;;;;;14.57;12.80;;;;;;;;;;5066704;28;20929;-71
2023/12/06 13:43:15;;;;;;;14.40;12.90;;;;;;;;;;5059456;28;20411;-72
2023/12/06 13:45:43;;;;;;;14.52;13.23;;;;;;;;;;5065962;28;20426;-73
2023/12/06 13:48:10;;;;;;;14.27;12.87;;;;;;;;;;5071851;28;20941;-73
2023/12/06 13:50:39;;;;;;;15.05;13.45;;;;;;;;;;5066850;28;20821;-72
2023/12/06 13:53:06;;;;;;;14.70;13.30;;;;;;;;;;5069131;28;20486;-73
2023/12/06 13:55:33;;;;;;;15.18;12.20;;;;;;;;;;5069890;28;20414;-73
2023/12/06 13:58:00;;;;;;;13.73;12.10;;;;;;;;;;5079412;28;20425;-73
2023/12/06 14:00:27;;;;;;;13.87;12.47;;;;;;;;;;5074382;28;20907;-73
2023/12/06 14:02:54;;;;;;;14.35;12.13;;;;;;;;;;5073854;28;20431;-73
2023/12/06 14:05:22;;;;;;;15.35;13.55;;;;;;;;;;5076547;28;20419;-73
2023/12/06 14:07:50;;;;;;;16.55;13.07;;;;;;;;;;5066992;28;20810;-73
2023/12/06 14:10:20;;;;;;;14.80;13.40;;;;;;;;;;5073996;28;20764;-73
2023/12/06 14:12:47;;;;;;;13.93;12.43;;;;;;;;;;5074423;28;20877;-73
2023/12/06 14:15:14;;;;;;;13.60;12.30;;;;;;;;;;5070302;28;20782;-73
2023/12/06 14:17:41;;;;;;;13.15;11.85;;;;;;;;;;5074571;28;20431;-73